Time;durP1;ratioP1;P1;durP2;ratioP2;P2;SDS_P1;SDS_P2;PMS_P1;PMS_P2;Temp;Humidity;BMP_temperature;BMP_pressure;BME280_temperature;BME280_humidity;BME280_pressure;Samples;Min_cycle;Max_cycle;Signal;HPM_P1;HPM_P2
2022/06/09 00:00:11;;;;;;;16.08;6.47;;;14.70;99.90;;;;;;5094920;28;20078;-68
2022/06/09 00:02:39;;;;;;;15.70;6.05;;;14.60;99.90;;;;;;5093867;28;20039;-68
2022/06/09 00:05:06;;;;;;;15.48;5.30;;;14.60;99.90;;;;;;5089538;28;20047;-68
2022/06/09 00:07:33;;;;;;;15.07;5.85;;;14.60;99.90;;;;;;5074300;28;20052;-68
2022/06/09 00:10:05;;;;;;;14.02;6.15;;;14.50;99.90;;;;;;5111158;27;20045;-68
2022/06/09 00:12:31;;;;;;;16.17;5.75;;;14.50;99.90;;;;;;5071639;28;20118;-68
2022/06/09 00:14:57;;;;;;;12.60;4.93;;;14.40;99.90;;;;;;5094168;28;20067;-68
2022/06/09 00:17:24;;;;;;;10.02;4.85;;;14.50;99.90;;;;;;5071678;28;20079;-68
2022/06/09 00:19:49;;;;;;;10.77;4.65;;;14.50;99.90;;;;;;5092883;28;20055;-68
2022/06/09 00:22:15;;;;;;;9.48;3.88;;;14.40;99.90;;;;;;5074269;28;20166;-68
2022/06/09 00:24:42;;;;;;;10.02;4.93;;;14.40;99.90;;;;;;5071214;28;20050;-68
2022/06/09 00:27:08;;;;;;;11.52;5.18;;;14.40;99.90;;;;;;5076718;28;20044;-68
2022/06/09 00:29:34;;;;;;;13.70;5.45;;;14.30;99.90;;;;;;5092994;28;20036;-68
2022/06/09 00:31:59;;;;;;;15.10;4.65;;;14.30;99.90;;;;;;5087574;28;22014;-68
2022/06/09 00:34:25;;;;;;;12.68;4.95;;;14.30;99.90;;;;;;5074803;28;20078;-68
2022/06/09 00:36:51;;;;;;;11.77;4.43;;;14.30;99.90;;;;;;5072449;28;20476;-68
2022/06/09 00:39:16;;;;;;;12.43;4.93;;;14.20;99.90;;;;;;5073542;28;20047;-68
2022/06/09 00:41:44;;;;;;;11.73;4.47;;;14.20;99.90;;;;;;5088502;28;20544;-68
2022/06/09 00:44:15;;;;;;;12.18;5.18;;;14.10;99.90;;;;;;5090704;28;20647;-68
2022/06/09 00:46:42;;;;;;;11.90;3.25;;;14.10;99.90;;;;;;5075120;28;20064;-68
2022/06/09 00:49:22;;;;;;;16.48;4.18;;;14.10;99.90;;;;;;5089241;28;20174;-68
2022/06/09 00:51:54;;;;;;;12.77;4.40;;;14.00;99.90;;;;;;5072501;28;20077;-68
2022/06/09 00:54:24;;;;;;;9.60;3.92;;;14.00;99.90;;;;;;5074213;28;20180;-68
2022/06/09 00:56:59;;;;;;;13.32;3.67;;;14.00;99.90;;;;;;5089908;28;20036;-68
2022/06/09 00:59:26;;;;;;;13.00;4.22;;;13.90;99.90;;;;;;5089645;28;20035;-68
2022/06/09 01:01:59;;;;;;;27.98;4.22;;;13.80;99.90;;;;;;5070498;28;20650;-68
2022/06/09 01:04:25;;;;;;;15.18;3.88;;;13.80;99.90;;;;;;5073645;28;20028;-68
2022/06/09 01:07:01;;;;;;;8.68;3.55;;;13.80;99.90;;;;;;5106372;27;20032;-68
2022/06/09 01:09:27;;;;;;;11.02;3.47;;;13.70;99.90;;;;;;5105389;27;20059;-68
2022/06/09 01:11:54;;;;;;;12.55;4.63;;;13.60;99.90;;;;;;5092080;28;20055;-68
2022/06/09 01:14:25;;;;;;;9.35;3.92;;;13.70;99.90;;;;;;5070760;28;21855;-68
2022/06/09 01:17:05;;;;;;;13.48;5.00;;;13.60;99.90;;;;;;5106803;27;20130;-68
2022/06/09 01:20:00;;;;;;;10.32;4.88;;;13.60;99.90;;;;;;5071231;28;20048;-68
2022/06/09 01:22:53;;;;;;;24.25;5.68;;;13.70;99.90;;;;;;5104918;27;20047;-68
2022/06/09 01:25:41;;;;;;;13.02;5.20;;;13.70;99.90;;;;;;5103599;27;20040;-68
2022/06/09 01:28:34;;;;;;;12.82;5.03;;;13.70;99.90;;;;;;5070929;28;20051;-68
2022/06/09 01:31:13;;;;;;;26.02;6.97;;;13.70;99.90;;;;;;5085923;28;20055;-68
2022/06/09 01:34:14;;;;;;;14.88;5.30;;;13.80;99.90;;;;;;5106824;27;20036;-68
2022/06/09 01:36:47;;;;;;;23.98;6.57;;;13.70;99.90;;;;;;5063936;28;20059;-68
2022/06/09 01:39:13;;;;;;;23.13;6.47;;;13.80;99.90;;;;;;5092211;28;20111;-68
2022/06/09 01:41:47;;;;;;;22.27;6.53;;;13.80;99.90;;;;;;5070522;28;20131;-68
2022/06/09 01:44:16;;;;;;;23.08;5.43;;;13.80;99.90;;;;;;5081322;28;20123;-68
2022/06/09 01:46:46;;;;;;;18.00;5.97;;;13.80;99.90;;;;;;5088539;28;20043;-67
2022/06/09 01:49:32;;;;;;;18.02;4.97;;;13.80;99.90;;;;;;5091228;28;20035;-67
2022/06/09 01:51:58;;;;;;;21.25;6.50;;;13.80;99.90;;;;;;5092607;28;21926;-68
2022/06/09 01:54:32;;;;;;;15.98;5.30;;;13.80;99.90;;;;;;5072249;28;20066;-68
2022/06/09 01:57:09;;;;;;;16.63;5.30;;;13.80;99.90;;;;;;5090040;28;20040;-68
2022/06/09 01:59:40;;;;;;;27.25;6.60;;;13.70;99.90;;;;;;5088142;28;20069;-67
2022/06/09 02:02:12;;;;;;;19.27;6.35;;;13.70;99.90;;;;;;5068560;28;20135;-67
2022/06/09 02:04:46;;;;;;;15.25;5.05;;;13.80;99.90;;;;;;5068057;28;20048;-67
2022/06/09 02:07:13;;;;;;;22.67;6.28;;;13.70;99.90;;;;;;5091599;28;20040;-67
2022/06/09 02:09:39;;;;;;;23.85;6.18;;;13.60;99.90;;;;;;5069823;28;20137;-67
2022/06/09 02:12:10;;;;;;;16.80;6.57;;;13.60;99.90;;;;;;5071989;28;20047;-67
2022/06/09 02:14:36;;;;;;;18.38;5.55;;;13.60;99.90;;;;;;5070451;28;20070;-67
2022/06/09 02:17:05;;;;;;;14.57;5.00;;;13.60;99.90;;;;;;5088475;28;20044;-67
2022/06/09 02:19:32;;;;;;;16.85;4.38;;;13.70;99.90;;;;;;5092258;28;20040;-68
2022/06/09 02:21:57;;;;;;;11.90;4.65;;;13.50;99.90;;;;;;5069592;28;20032;-67
2022/06/09 02:24:23;;;;;;;9.93;4.35;;;13.50;99.90;;;;;;5087317;28;20039;-67
2022/06/09 02:26:49;;;;;;;9.50;4.15;;;13.40;99.90;;;;;;5101714;28;20064;-67
2022/06/09 02:29:15;;;;;;;12.98;5.15;;;13.40;99.90;;;;;;5089562;28;20385;-67
2022/06/09 02:31:41;;;;;;;15.55;5.72;;;13.40;99.90;;;;;;5069365;28;20086;-67
2022/06/09 02:34:07;;;;;;;9.80;5.10;;;13.40;99.90;;;;;;5070032;28;20040;-67
2022/06/09 02:36:33;;;;;;;17.58;4.75;;;13.30;99.90;;;;;;5091518;28;20039;-67
2022/06/09 02:38:58;;;;;;;9.20;4.78;;;13.20;99.90;;;;;;5074384;28;20072;-67
2022/06/09 02:41:24;;;;;;;15.95;5.20;;;13.30;99.90;;;;;;5104312;28;20096;-67
2022/06/09 02:43:51;;;;;;;12.25;4.88;;;13.20;99.90;;;;;;5088745;28;20039;-67
2022/06/09 02:46:17;;;;;;;9.73;4.35;;;13.20;99.90;;;;;;5088012;28;20101;-67
2022/06/09 02:48:42;;;;;;;13.32;3.90;;;13.10;99.90;;;;;;5088650;28;20040;-67
2022/06/09 02:51:23;;;;;;;9.18;3.67;;;13.10;99.90;;;;;;5088458;28;20040;-67
2022/06/09 02:53:49;;;;;;;11.63;4.32;;;13.00;99.90;;;;;;5071941;28;20126;-68
2022/06/09 02:56:15;;;;;;;12.05;3.70;;;13.00;99.90;;;;;;5076238;28;20521;-67
2022/06/09 02:58:41;;;;;;;15.18;4.07;;;12.90;99.90;;;;;;5075927;28;20486;-67
2022/06/09 03:01:07;;;;;;;8.82;3.50;;;12.90;99.90;;;;;;5079352;28;20051;-67
2022/06/09 03:03:33;;;;;;;8.75;4.43;;;12.90;99.90;;;;;;5074445;28;20097;-67
2022/06/09 03:05:59;;;;;;;17.17;4.80;;;12.90;99.90;;;;;;5092329;28;20040;-67
2022/06/09 03:08:26;;;;;;;16.50;3.80;;;12.80;99.90;;;;;;5090432;28;20039;-67
2022/06/09 03:10:52;;;;;;;9.13;3.65;;;12.90;99.90;;;;;;5077501;28;20478;-67
2022/06/09 03:13:17;;;;;;;10.50;4.75;;;12.80;99.90;;;;;;5093875;28;20051;-67
2022/06/09 03:15:47;;;;;;;7.97;3.90;;;12.70;99.90;;;;;;5093617;28;20020;-67
2022/06/09 03:18:14;;;;;;;5.97;3.50;;;12.70;99.90;;;;;;5091141;28;20040;-67
2022/06/09 03:20:40;;;;;;;15.88;4.28;;;12.70;99.90;;;;;;5073898;28;20101;-67
2022/06/09 03:23:05;;;;;;;7.85;3.35;;;12.70;99.90;;;;;;5071150;28;20059;-67
2022/06/09 03:25:31;;;;;;;5.28;3.53;;;12.60;99.90;;;;;;5093302;28;20035;-67
2022/06/09 03:27:57;;;;;;;6.68;3.45;;;12.60;99.90;;;;;;5095310;28;20039;-67
2022/06/09 03:30:23;;;;;;;11.68;3.70;;;12.60;99.90;;;;;;5095484;28;20505;-67
2022/06/09 03:32:48;;;;;;;12.57;3.60;;;12.60;99.90;;;;;;5076136;28;20036;-67
2022/06/09 03:35:14;;;;;;;10.95;4.70;;;12.60;99.90;;;;;;5091623;28;20084;-67
2022/06/09 03:37:40;;;;;;;9.05;3.65;;;12.70;99.90;;;;;;5093136;28;20036;-67
2022/06/09 03:40:08;;;;;;;9.30;4.35;;;12.60;99.90;;;;;;5093081;28;20150;-67
2022/06/09 03:42:34;;;;;;;14.43;5.90;;;12.60;99.90;;;;;;5090236;28;20044;-67
2022/06/09 03:45:00;;;;;;;11.65;4.50;;;12.70;99.90;;;;;;5072686;28;20047;-67
2022/06/09 03:47:25;;;;;;;7.18;3.47;;;12.70;99.90;;;;;;5104256;27;20044;-67
2022/06/09 03:49:51;;;;;;;13.13;4.55;;;12.70;99.90;;;;;;5069257;28;20040;-67
2022/06/09 03:52:17;;;;;;;15.27;6.13;;;12.70;99.90;;;;;;5074734;28;20182;-67
2022/06/09 03:54:42;;;;;;;15.77;6.18;;;12.80;99.90;;;;;;5075236;28;20042;-67
2022/06/09 03:57:09;;;;;;;14.40;6.55;;;12.80;99.90;;;;;;5074608;28;20040;-67
2022/06/09 03:59:35;;;;;;;11.50;5.38;;;12.90;99.90;;;;;;5075214;28;20533;-67
2022/06/09 04:02:00;;;;;;;9.88;5.28;;;12.90;99.90;;;;;;5089958;28;20047;-67
2022/06/09 04:04:27;;;;;;;11.40;5.40;;;12.90;99.90;;;;;;5093188;28;20386;-67
2022/06/09 04:06:52;;;;;;;8.95;5.72;;;13.00;99.90;;;;;;5070571;28;20039;-67
2022/06/09 04:09:18;;;;;;;11.07;6.18;;;13.00;99.90;;;;;;5089787;28;20036;-67
2022/06/09 04:11:43;;;;;;;13.45;6.90;;;13.00;99.90;;;;;;5076371;28;20088;-67
2022/06/09 04:14:09;;;;;;;15.25;7.15;;;13.10;99.90;;;;;;5108780;27;20040;-67
2022/06/09 04:16:37;;;;;;;15.77;6.13;;;13.10;99.90;;;;;;5090755;28;20039;-67
2022/06/09 04:19:07;;;;;;;11.88;6.20;;;13.40;99.90;;;;;;5069045;28;20040;-67
2022/06/09 04:21:35;;;;;;;10.73;5.95;;;13.10;99.90;;;;;;5070015;28;20048;-67
2022/06/09 04:24:01;;;;;;;18.70;7.55;;;13.20;99.90;;;;;;5084347;28;20048;-67
2022/06/09 04:26:29;;;;;;;14.82;6.53;;;13.50;99.90;;;;;;5069393;28;20044;-67
2022/06/09 04:28:55;;;;;;;16.70;6.50;;;13.20;99.90;;;;;;5075189;28;20052;-67
2022/06/09 04:31:22;;;;;;;15.25;7.38;;;13.30;99.90;;;;;;5069968;28;20050;-67
2022/06/09 04:33:48;;;;;;;16.80;6.65;;;13.40;99.90;;;;;;5072252;28;20084;-67
2022/06/09 04:36:16;;;;;;;15.57;6.45;;;13.40;99.90;;;;;;5086317;28;20116;-67
2022/06/09 04:38:42;;;;;;;17.55;6.35;;;13.40;99.90;;;;;;5088016;28;20383;-67
2022/06/09 04:41:10;;;;;;;14.68;6.18;;;13.50;99.90;;;;;;5092936;28;20044;-67
2022/06/09 04:43:37;;;;;;;15.18;6.07;;;13.80;99.90;;;;;;5072826;28;20048;-67
2022/06/09 04:46:04;;;;;;;15.55;5.93;;;13.80;99.90;;;;;;5068524;28;20051;-67
2022/06/09 04:48:31;;;;;;;13.57;6.25;;;13.80;99.90;;;;;;5070998;28;20052;-67
2022/06/09 04:50:57;;;;;;;13.35;4.80;;;13.80;99.90;;;;;;5089825;28;20415;-67
2022/06/09 04:53:23;;;;;;;16.30;6.70;;;13.90;99.90;;;;;;5071361;28;20035;-67
2022/06/09 04:55:49;;;;;;;11.98;5.72;;;13.90;99.90;;;;;;5085915;28;20123;-67
2022/06/09 04:58:15;;;;;;;12.18;5.93;;;14.00;99.90;;;;;;5071003;28;20134;-67
2022/06/09 05:00:41;;;;;;;10.07;6.18;;;14.00;99.90;;;;;;5069632;28;20043;-67
2022/06/09 05:03:11;;;;;;;11.18;6.00;;;14.00;99.90;;;;;;5073642;28;20048;-67
2022/06/09 05:05:41;;;;;;;11.13;6.05;;;14.10;99.90;;;;;;5071001;28;20048;-67
2022/06/09 05:08:08;;;;;;;16.50;7.47;;;14.10;99.90;;;;;;5075351;28;20052;-67
2022/06/09 05:10:33;;;;;;;14.35;8.07;;;14.20;99.90;;;;;;5071239;28;20047;-67
2022/06/09 05:13:00;;;;;;;12.35;8.50;;;14.20;99.90;;;;;;5093459;28;20040;-67
2022/06/09 05:15:27;;;;;;;11.18;8.82;;;14.20;99.90;;;;;;5092703;28;20047;-67
2022/06/09 05:17:53;;;;;;;18.13;11.80;;;14.30;99.90;;;;;;5073871;28;20036;-67
2022/06/09 05:20:23;;;;;;;14.20;10.95;;;14.30;99.90;;;;;;5066085;28;20044;-67
2022/06/09 05:22:49;;;;;;;17.42;12.07;;;14.30;99.90;;;;;;5068802;28;20362;-67
2022/06/09 05:25:15;;;;;;;19.13;11.32;;;14.40;99.90;;;;;;5089839;28;20035;-67
2022/06/09 05:27:41;;;;;;;17.48;11.70;;;14.50;99.90;;;;;;5073722;28;20081;-67
2022/06/09 05:30:11;;;;;;;15.88;11.82;;;14.40;99.90;;;;;;5064658;28;20044;-68
2022/06/09 05:32:37;;;;;;;17.60;13.15;;;14.40;99.90;;;;;;5064524;28;20046;-68
2022/06/09 05:35:04;;;;;;;15.25;12.38;;;14.30;99.90;;;;;;5085782;28;20040;-67
2022/06/09 05:44:50;;;;;;;16.88;11.65;;;14.40;99.90;;;;;;5071218;28;20056;-67
2022/06/09 05:45:44;;;;;;;16.73;14.00;;;14.40;99.90;;;;;;5074533;28;20102;-67
2022/06/09 05:48:09;;;;;;;17.48;15.65;;;14.40;99.90;;;;;;5092721;28;20075;-67
2022/06/09 05:50:37;;;;;;;20.80;15.55;;;14.40;99.90;;;;;;5087705;28;20035;-67
2022/06/09 05:53:02;;;;;;;22.27;16.23;;;14.40;99.90;;;;;;5072275;28;20716;-67
2022/06/09 05:55:28;;;;;;;22.65;17.45;;;14.40;99.90;;;;;;5072014;28;20032;-68
2022/06/09 05:57:54;;;;;;;21.05;17.85;;;14.40;99.90;;;;;;5067440;28;20040;-68
2022/06/09 06:00:19;;;;;;;19.77;17.67;;;14.50;99.90;;;;;;5075442;28;20046;-67
2022/06/09 06:02:45;;;;;;;22.23;17.10;;;14.40;99.90;;;;;;5092093;28;20027;-67
2022/06/09 06:06:33;;;;;;;22.85;17.50;;;14.50;99.90;;;;;;5088060;28;20067;-67
2022/06/09 06:07:57;;;;;;;24.52;17.98;;;14.60;99.90;;;;;;5083093;28;20072;-67
2022/06/09 06:10:23;;;;;;;18.52;16.17;;;14.60;99.90;;;;;;5088522;28;20040;-67
2022/06/09 06:12:48;;;;;;;22.08;16.60;;;14.60;99.90;;;;;;5106390;27;20418;-67
2022/06/09 06:15:14;;;;;;;16.10;14.05;;;14.60;99.90;;;;;;5089635;28;20110;-67
2022/06/09 06:17:39;;;;;;;21.65;15.50;;;14.60;99.90;;;;;;5074469;28;20506;-67
2022/06/09 06:20:06;;;;;;;16.85;14.38;;;14.70;99.90;;;;;;5087028;28;20182;-67
2022/06/09 06:22:31;;;;;;;17.48;15.48;;;14.70;99.90;;;;;;5090927;28;20040;-67
2022/06/09 06:24:59;;;;;;;17.85;15.60;;;14.70;99.90;;;;;;5088456;28;20039;-67
2022/06/09 06:27:25;;;;;;;22.55;16.83;;;14.90;99.90;;;;;;5091097;28;20052;-67
2022/06/09 06:29:51;;;;;;;18.88;15.65;;;14.90;99.90;;;;;;5071462;28;20046;-67
2022/06/09 06:32:17;;;;;;;16.20;14.18;;;15.00;99.90;;;;;;5092471;28;20040;-67
2022/06/09 06:34:42;;;;;;;17.42;15.63;;;15.10;99.90;;;;;;5071938;28;20465;-67
2022/06/09 06:37:08;;;;;;;16.83;14.05;;;15.20;99.90;;;;;;5072908;28;20446;-67
2022/06/09 06:39:34;;;;;;;18.20;14.48;;;15.30;99.90;;;;;;5093099;28;20111;-67
2022/06/09 06:42:00;;;;;;;14.80;13.25;;;15.40;99.90;;;;;;5105632;28;20466;-67
2022/06/09 06:44:25;;;;;;;15.32;13.82;;;15.60;99.90;;;;;;5073502;28;20040;-67
2022/06/09 06:46:51;;;;;;;13.32;12.20;;;15.90;99.90;;;;;;5074775;28;20127;-67
2022/06/09 06:49:16;;;;;;;12.75;11.45;;;16.10;99.90;;;;;;5072177;28;21026;-67
2022/06/09 06:51:42;;;;;;;13.90;10.07;;;16.20;99.90;;;;;;5088935;28;20043;-67
2022/06/09 06:54:08;;;;;;;10.95;9.73;;;16.40;99.90;;;;;;5093738;28;20039;-67
2022/06/09 06:56:35;;;;;;;9.98;8.95;;;16.60;99.90;;;;;;5072280;28;20044;-67
2022/06/09 06:59:01;;;;;;;13.38;7.43;;;17.00;99.90;;;;;;5090819;28;20603;-67
2022/06/09 07:01:27;;;;;;;10.05;8.13;;;17.30;99.90;;;;;;5087749;28;20032;-67
2022/06/09 07:03:55;;;;;;;12.80;8.35;;;17.40;99.90;;;;;;5044048;28;20044;-67
2022/06/09 07:06:21;;;;;;;8.00;7.28;;;17.50;99.90;;;;;;5101834;28;20039;-67
2022/06/09 07:08:47;;;;;;;11.65;7.88;;;17.80;99.90;;;;;;5058276;28;20051;-67
2022/06/09 07:11:13;;;;;;;9.27;8.27;;;18.00;99.90;;;;;;5071075;28;20097;-67
2022/06/09 07:13:39;;;;;;;10.85;6.63;;;18.20;99.90;;;;;;5090361;28;20386;-67
2022/06/09 07:16:06;;;;;;;7.43;5.43;;;18.20;99.90;;;;;;5085160;28;20044;-67
2022/06/09 07:18:35;;;;;;;5.22;4.13;;;18.30;99.90;;;;;;5102329;28;20052;-67
2022/06/09 07:21:01;;;;;;;8.02;5.47;;;18.60;99.90;;;;;;5069884;28;20051;-67
2022/06/09 07:23:29;;;;;;;4.55;4.15;;;18.90;99.90;;;;;;5070064;28;20071;-67
2022/06/09 07:25:56;;;;;;;5.72;3.65;;;19.10;99.90;;;;;;5088478;28;20036;-67
2022/06/09 07:28:22;;;;;;;7.63;3.92;;;19.10;99.90;;;;;;5086502;28;20028;-67
2022/06/09 07:30:49;;;;;;;6.90;4.82;;;19.20;99.90;;;;;;5087493;28;20079;-68
2022/06/09 07:33:15;;;;;;;8.77;3.90;;;19.50;99.90;;;;;;5072553;28;20036;-67
2022/06/09 07:35:41;;;;;;;5.93;3.70;;;19.70;99.90;;;;;;5068619;28;20032;-68
2022/06/09 07:38:10;;;;;;;5.72;3.60;;;19.90;99.90;;;;;;5086744;28;20090;-67
2022/06/09 07:40:38;;;;;;;5.38;2.95;;;20.00;99.90;;;;;;5090389;28;20072;-68
2022/06/09 07:43:03;;;;;;;4.15;2.95;;;20.10;99.90;;;;;;5074863;28;20059;-68
2022/06/09 07:45:31;;;;;;;6.95;3.28;;;20.30;99.90;;;;;;5076882;28;20044;-67
2022/06/09 07:47:57;;;;;;;6.40;2.80;;;20.50;99.90;;;;;;5072892;28;20036;-67
2022/06/09 07:50:23;;;;;;;4.55;3.15;;;20.60;99.90;;;;;;5092529;28;20395;-68
2022/06/09 07:52:49;;;;;;;4.53;3.05;;;20.50;99.90;;;;;;5070718;28;20064;-68
2022/06/09 07:55:16;;;;;;;6.97;2.35;;;20.10;99.90;;;;;;5072636;28;20059;-68
2022/06/09 07:57:42;;;;;;;6.00;2.03;;;20.20;99.90;;;;;;5074486;28;20032;-68
2022/06/09 08:00:10;;;;;;;6.22;1.67;;;20.50;99.90;;;;;;5092962;28;20147;-68
2022/06/09 08:02:36;;;;;;;5.15;1.58;;;20.80;99.90;;;;;;5070765;28;20044;-68
2022/06/09 08:05:03;;;;;;;3.08;0.80;;;21.00;99.90;;;;;;5071320;28;20043;-68
2022/06/09 08:07:28;;;;;;;4.00;1.65;;;21.00;99.90;;;;;;5073700;28;20556;-68
2022/06/09 08:09:54;;;;;;;8.75;2.20;;;20.80;99.90;;;;;;5105961;27;20039;-68
2022/06/09 08:12:20;;;;;;;5.68;1.17;;;21.00;99.90;;;;;;5093606;28;20076;-68
2022/06/09 08:14:46;;;;;;;3.25;1.17;;;21.10;99.90;;;;;;5093129;28;20111;-68
2022/06/09 08:17:11;;;;;;;4.80;0.90;;;21.30;99.90;;;;;;5070920;28;20028;-68
2022/06/09 08:19:37;;;;;;;2.85;0.80;;;21.20;99.90;;;;;;5096242;28;20093;-68
2022/06/09 08:22:04;;;;;;;3.85;0.80;;;21.30;99.90;;;;;;5090745;28;20039;-68
2022/06/09 08:24:33;;;;;;;14.63;1.25;;;21.20;99.90;;;;;;5093003;28;20051;-68
2022/06/09 08:27:00;;;;;;;4.68;1.15;;;21.20;99.90;;;;;;5092933;28;20126;-68
2022/06/09 08:29:26;;;;;;;3.72;1.13;;;21.20;99.90;;;;;;5070887;28;20038;-68
2022/06/09 08:31:53;;;;;;;2.25;0.75;;;21.10;99.90;;;;;;5074367;28;20092;-68
2022/06/09 08:34:19;;;;;;;2.53;0.60;;;20.90;99.90;;;;;;5073070;28;20072;-68
2022/06/09 08:36:44;;;;;;;4.45;1.02;;;21.10;99.90;;;;;;5075365;28;20067;-68
2022/06/09 08:39:10;;;;;;;3.95;0.63;;;21.20;99.90;;;;;;5094441;28;20035;-68
2022/06/09 08:42:13;;;;;;;2.13;0.50;;;21.30;99.90;;;;;;5075880;28;20157;-68
2022/06/09 08:45:02;;;;;;;4.80;0.95;;;21.50;99.90;;;;;;5042854;28;20154;-68
2022/06/09 08:47:34;;;;;;;4.07;0.70;;;21.90;99.90;;;;;;5087587;28;20040;-68
2022/06/09 08:50:12;;;;;;;5.18;1.13;;;21.60;99.90;;;;;;5074086;28;20048;-67
2022/06/09 08:52:49;;;;;;;2.92;0.90;;;21.70;99.90;;;;;;5092388;28;20116;-68
2022/06/09 08:55:36;;;;;;;3.83;0.60;;;21.40;99.90;;;;;;5074741;28;20071;-68
2022/06/09 08:58:24;;;;;;;3.35;1.08;;;21.30;99.90;;;;;;5073301;28;20054;-68
2022/06/09 09:01:10;;;;;;;3.28;0.75;;;21.50;99.90;;;;;;5092860;28;20050;-68
2022/06/09 09:03:40;;;;;;;2.35;0.82;;;21.70;99.90;;;;;;5089911;28;20109;-68
2022/06/09 09:06:31;;;;;;;3.17;0.80;;;21.80;99.90;;;;;;5105772;27;21330;-68
2022/06/09 09:09:23;;;;;;;3.85;0.80;;;21.80;99.90;;;;;;5073911;28;20082;-68
2022/06/09 09:12:08;;;;;;;1.98;0.57;;;21.60;99.90;;;;;;5103951;27;20123;-68
2022/06/09 09:15:02;;;;;;;6.18;1.27;;;21.40;99.90;;;;;;5069440;28;20039;-68
2022/06/09 09:17:38;;;;;;;3.38;0.70;;;21.20;99.90;;;;;;5093447;28;20111;-68
2022/06/09 09:20:12;;;;;;;4.50;0.75;;;21.00;99.90;;;;;;5090828;28;20056;-68
2022/06/09 09:23:01;;;;;;;3.33;0.57;;;21.10;99.90;;;;;;5089578;28;20067;-68
2022/06/09 09:25:41;;;;;;;4.32;0.68;;;21.20;99.90;;;;;;5089537;28;20047;-68
2022/06/09 09:28:32;;;;;;;7.07;0.70;;;21.30;99.90;;;;;;5074230;28;20067;-68
2022/06/09 09:31:41;;;;;;;3.22;0.47;;;21.10;99.90;;;;;;5089276;28;20054;-68
2022/06/09 09:34:17;;;;;;;5.43;1.08;;;20.80;99.90;;;;;;5070245;28;20113;-67
2022/06/09 09:36:46;;;;;;;3.72;0.70;;;21.00;99.90;;;;;;5089467;28;20036;-68
2022/06/09 09:39:20;;;;;;;4.22;0.75;;;21.20;99.90;;;;;;5055628;28;20393;-68
2022/06/09 09:41:46;;;;;;;6.00;0.75;;;21.50;99.90;;;;;;5095344;28;20031;-68
2022/06/09 09:44:27;;;;;;;6.28;0.80;;;21.40;99.90;;;;;;5061591;28;20071;-68
2022/06/09 09:47:00;;;;;;;5.10;0.70;;;21.50;99.90;;;;;;5088475;28;20398;-68
2022/06/09 09:49:43;;;;;;;7.70;0.93;;;21.70;99.90;;;;;;5104318;27;20118;-68
2022/06/09 09:52:45;;;;;;;3.75;0.80;;;21.90;99.90;;;;;;5070728;28;20506;-68
2022/06/09 09:55:29;;;;;;;7.00;1.30;;;22.00;99.90;;;;;;4971089;28;20042;-68
2022/06/09 09:58:15;;;;;;;4.30;1.05;;;22.20;99.90;;;;;;5098623;27;20060;-68
2022/06/09 10:00:42;;;;;;;3.63;0.70;;;22.50;99.90;;;;;;5105705;27;20493;-68
2022/06/09 10:09:09;;;;;;;4.20;0.93;;;22.40;99.90;;;;;;5089191;28;20044;-68
2022/06/09 10:11:54;;;;;;;6.50;0.93;;;22.50;99.90;;;;;;5093659;28;20079;-68
2022/06/09 10:14:20;;;;;;;;;;;22.60;99.90;;;;;;5089756;28;20053;-68
2022/06/09 10:16:51;;;;;;;4.22;0.85;;;22.70;99.90;;;;;;5068734;28;19916;-68
2022/06/09 10:19:21;;;;;;;3.92;0.70;;;22.50;99.90;;;;;;5070849;28;20032;-68
2022/06/09 10:21:52;;;;;;;5.05;1.27;;;22.40;99.90;;;;;;5071111;28;20097;-68
2022/06/09 10:24:41;;;;;;;8.40;1.67;;;22.50;99.90;;;;;;5072112;28;20068;-68
2022/06/09 10:27:09;;;;;;;5.20;1.00;;;22.30;99.90;;;;;;5090397;28;20043;-67
2022/06/09 10:29:50;;;;;;;6.55;0.80;;;22.40;99.90;;;;;;5091955;28;20044;-68
2022/06/09 10:32:33;;;;;;;6.05;1.33;;;22.50;99.90;;;;;;5090195;28;20090;-68
2022/06/09 10:35:11;;;;;;;5.15;0.88;;;22.60;99.90;;;;;;5073867;28;20040;-68
2022/06/09 10:37:56;;;;;;;4.85;1.00;;;22.80;99.90;;;;;;5054827;28;20044;-67
2022/06/09 10:40:28;;;;;;;;;;;22.80;99.90;;;;;;5093767;28;20080;-67
2022/06/09 10:42:54;;;;;;;3.72;0.70;;;23.00;99.90;;;;;;5087080;28;19969;-67
2022/06/09 10:45:58;;;;;;;4.32;0.73;;;23.10;99.90;;;;;;5084418;28;20048;-67
2022/06/09 10:57:40;;;;;;;3.38;0.55;;;23.10;99.90;;;;;;5102098;28;20123;-67
2022/06/09 11:00:15;;;;;;;3.88;0.63;;;23.10;99.90;;;;;;5056347;28;20059;-67
2022/06/09 11:02:46;;;;;;;6.45;0.60;;;23.10;99.90;;;;;;5075832;28;20063;-67
2022/06/09 11:05:15;;;;;;;1.85;0.43;;;23.10;99.90;;;;;;5093344;28;20428;-67
2022/06/09 11:08:04;;;;;;;2.92;0.47;;;23.00;99.90;;;;;;5090636;28;20084;-67
2022/06/09 11:11:02;;;;;;;3.25;0.35;;;23.00;99.90;;;;;;5070058;28;20048;-67
2022/06/09 11:14:10;;;;;;;2.03;0.60;;;23.10;99.90;;;;;;5056622;28;20052;-67
2022/06/09 11:17:13;;;;;;;4.10;0.68;;;23.20;99.90;;;;;;5077777;28;20111;-67
2022/06/09 11:20:06;;;;;;;2.63;0.57;;;23.20;99.90;;;;;;5093888;28;20042;-67
2022/06/09 11:22:44;;;;;;;3.47;0.75;;;23.20;99.90;;;;;;5091299;28;20031;-67
2022/06/09 11:25:25;;;;;;;6.82;1.30;;;23.20;99.90;;;;;;5072911;28;20040;-67
2022/06/09 11:28:11;;;;;;;6.32;0.73;;;23.10;99.90;;;;;;5091842;28;20036;-67
2022/06/09 11:31:00;;;;;;;3.75;0.90;;;23.10;99.90;;;;;;5109050;27;20075;-67
2022/06/09 11:33:29;;;;;;;3.60;0.50;;;23.10;99.90;;;;;;5046543;28;20044;-67
2022/06/09 11:36:08;;;;;;;7.45;0.90;;;23.00;99.90;;;;;;5074859;28;20047;-68
2022/06/09 11:38:52;;;;;;;5.95;0.98;;;22.90;99.90;;;;;;5087374;28;20824;-67
2022/06/09 11:41:48;;;;;;;2.25;0.50;;;22.80;99.90;;;;;;5099371;27;20047;-67
2022/06/09 11:44:19;;;;;;;;;;;22.70;99.90;;;;;;5059499;28;20119;-67
2022/06/09 11:46:44;;;;;;;9.93;0.68;;;22.80;99.90;;;;;;5094792;28;19916;-67
2022/06/09 11:49:29;;;;;;;4.60;0.55;;;22.80;99.90;;;;;;5073071;28;20482;-67
2022/06/09 11:51:56;;;;;;;3.53;0.70;;;22.90;99.90;;;;;;5092630;28;20066;-67
2022/06/09 11:54:40;;;;;;;7.78;1.27;;;22.80;99.90;;;;;;5089398;28;20044;-67
2022/06/09 11:57:20;;;;;;;3.58;0.98;;;22.70;99.90;;;;;;5076138;28;20051;-67
2022/06/09 12:00:03;;;;;;;2.60;0.95;;;22.70;99.90;;;;;;5095247;28;20476;-67
2022/06/09 12:03:08;;;;;;;4.28;1.00;;;22.80;99.90;;;;;;5059182;28;20577;-67
2022/06/09 12:05:36;;;;;;;2.45;0.45;;;22.80;99.90;;;;;;5074220;28;20040;-67
2022/06/09 12:08:17;;;;;;;3.75;1.48;;;22.80;99.90;;;;;;5094832;28;20044;-67
2022/06/09 12:10:57;;;;;;;4.78;0.80;;;22.90;99.90;;;;;;5073660;28;20131;-67
2022/06/09 12:13:26;;;;;;;4.28;0.80;;;22.80;99.90;;;;;;5073304;28;20036;-68
2022/06/09 12:16:20;;;;;;;2.38;0.55;;;22.80;99.90;;;;;;5091166;28;20067;-67
2022/06/09 12:18:59;;;;;;;8.23;0.90;;;22.80;99.90;;;;;;5091829;28;20128;-67
2022/06/09 12:21:53;;;;;;;3.83;0.80;;;22.80;99.90;;;;;;5095823;28;20065;-67
2022/06/09 12:24:30;;;;;;;4.32;0.80;;;22.70;99.90;;;;;;5072393;28;20036;-68
2022/06/09 12:27:18;;;;;;;3.90;0.60;;;22.60;99.90;;;;;;5087301;28;20123;-68
2022/06/09 12:30:06;;;;;;;3.20;0.80;;;22.60;99.90;;;;;;5088376;28;20045;-68
2022/06/09 12:32:44;;;;;;;5.20;0.75;;;22.40;99.90;;;;;;5064171;28;20524;-68
2022/06/09 12:35:25;;;;;;;1.85;0.47;;;22.40;99.90;;;;;;5087784;28;20040;-68
2022/06/09 12:38:06;;;;;;;4.05;0.80;;;22.50;99.90;;;;;;5081980;28;20036;-68
2022/06/09 12:40:42;;;;;;;4.82;0.80;;;22.50;99.90;;;;;;5088883;28;20040;-68
2022/06/09 12:43:23;;;;;;;;;;;22.50;99.90;;;;;;5084273;28;20048;-68
2022/06/09 12:46:22;;;;;;;4.60;1.08;;;22.60;99.90;;;;;;5104789;27;20386;-68
2022/06/09 12:48:49;;;;;;;2.35;0.47;;;22.50;99.90;;;;;;5071032;28;20036;-68
2022/06/09 12:51:42;;;;;;;4.90;0.73;;;22.50;99.90;;;;;;5086406;28;20452;-68
2022/06/09 12:54:28;;;;;;;5.32;1.00;;;22.30;99.90;;;;;;5066954;28;20079;-68
2022/06/09 12:57:05;;;;;;;4.97;0.68;;;22.00;99.90;;;;;;5067633;28;20666;-68
2022/06/09 12:59:37;;;;;;;4.35;1.15;;;21.70;99.90;;;;;;5089326;28;20032;-68
2022/06/09 13:02:27;;;;;;;3.65;0.70;;;21.70;99.90;;;;;;5084767;28;20048;-68
2022/06/09 13:05:01;;;;;;;3.08;0.60;;;21.80;99.90;;;;;;5068504;28;20068;-68
2022/06/09 13:07:31;;;;;;;4.35;0.90;;;21.90;99.90;;;;;;5070158;28;20055;-68
2022/06/09 13:10:08;;;;;;;3.15;0.60;;;21.90;99.90;;;;;;5066796;28;20058;-68
2022/06/09 13:12:53;;;;;;;3.35;0.50;;;22.00;99.90;;;;;;5087022;28;20050;-68
2022/06/09 13:15:38;;;;;;;2.45;0.70;;;22.10;99.90;;;;;;5085160;28;21168;-68
2022/06/09 13:18:31;;;;;;;4.10;1.00;;;22.20;99.90;;;;;;5064571;28;20490;-68
2022/06/09 13:21:15;;;;;;;5.68;0.75;;;22.30;99.90;;;;;;5086226;28;20546;-68
2022/06/09 13:23:48;;;;;;;6.55;1.10;;;22.20;99.90;;;;;;5069843;28;20514;-68
2022/06/09 13:26:19;;;;;;;5.15;0.80;;;21.90;99.90;;;;;;5087987;28;20046;-68
2022/06/09 13:28:52;;;;;;;4.40;0.70;;;21.90;99.90;;;;;;5084112;28;20122;-68